createdAt,value
2023-05-02T00:00:58.430Z,23.81
2023-05-02T00:01:58.459Z,23.81
2023-05-02T00:02:58.736Z,23.80
2023-05-02T00:03:58.577Z,23.80
2023-05-02T00:04:58.547Z,23.81
2023-05-02T00:05:58.610Z,23.80
2023-05-02T00:06:58.691Z,23.80
2023-05-02T00:07:58.655Z,23.80
2023-05-02T00:08:58.668Z,23.80
2023-05-02T00:09:58.848Z,23.81
2023-05-02T00:10:58.729Z,23.80
2023-05-02T00:11:58.790Z,23.80
2023-05-02T00:12:58.823Z,23.81
2023-05-02T00:13:58.852Z,23.81
2023-05-02T00:14:58.861Z,23.81
2023-05-02T00:15:58.900Z,23.80
2023-05-02T00:16:58.979Z,23.80
2023-05-02T00:17:58.986Z,23.80
2023-05-02T00:18:58.991Z,23.80
2023-05-02T00:19:59.376Z,23.79
2023-05-02T00:20:59.035Z,23.81
2023-05-02T00:21:59.098Z,23.80
2023-05-02T00:22:59.160Z,23.80
2023-05-02T00:23:59.170Z,23.79
2023-05-02T00:24:59.253Z,23.80
2023-05-02T00:25:59.241Z,23.78
2023-05-02T00:26:59.435Z,23.80
2023-05-02T00:27:59.632Z,23.79
2023-05-02T00:28:59.516Z,23.79
2023-05-02T00:29:59.455Z,23.79
2023-05-02T00:30:59.339Z,23.79
2023-05-02T00:31:59.350Z,23.79
2023-05-02T00:32:59.426Z,23.79
2023-05-02T00:33:59.437Z,23.79
2023-05-02T00:34:59.388Z,23.79
2023-05-02T00:35:59.421Z,23.78
2023-05-02T00:36:59.476Z,23.79
2023-05-02T00:37:59.502Z,23.79
2023-05-02T00:38:59.499Z,23.79
2023-05-02T00:39:59.743Z,23.79
2023-05-02T00:40:59.596Z,23.78
2023-05-02T00:41:59.610Z,23.78
2023-05-02T00:42:59.655Z,23.79
2023-05-02T00:43:59.676Z,23.79
2023-05-02T00:44:59.702Z,23.79
2023-05-02T00:45:59.759Z,23.79
2023-05-02T00:46:59.756Z,23.79
2023-05-02T00:47:59.836Z,23.78
2023-05-02T00:48:59.806Z,23.80
2023-05-02T00:49:59.919Z,23.79
2023-05-02T00:50:59.905Z,23.79
2023-05-02T00:51:59.930Z,23.78
2023-05-02T00:52:59.975Z,23.78
2023-05-02T00:54:00.005Z,23.78
2023-05-02T00:55:00.065Z,23.79
2023-05-02T00:56:00.132Z,23.78
2023-05-02T00:57:00.146Z,23.78
2023-05-02T00:58:00.143Z,23.78
2023-05-02T00:59:00.189Z,23.78
2023-05-02T01:00:00.384Z,23.78
2023-05-02T01:01:00.243Z,23.78
2023-05-02T01:02:00.350Z,23.78
2023-05-02T01:03:00.353Z,23.77
2023-05-02T01:04:00.440Z,23.78
2023-05-02T01:05:00.409Z,23.77
2023-05-02T01:06:00.552Z,23.77
2023-05-02T01:07:00.485Z,23.78
2023-05-02T01:08:00.508Z,23.77
2023-05-02T01:09:00.533Z,23.78
2023-05-02T01:10:00.764Z,23.78
2023-05-02T01:11:00.606Z,23.77
2023-05-02T01:12:00.665Z,23.78
2023-05-02T01:13:00.692Z,23.77
2023-05-02T01:14:00.706Z,23.77
2023-05-02T01:15:00.738Z,23.77
2023-05-02T01:16:01.832Z,23.77
2023-05-02T01:17:00.822Z,23.77
2023-05-02T01:18:00.944Z,23.76
2023-05-02T01:19:00.931Z,23.77
2023-05-02T01:20:01.230Z,23.76
2023-05-02T01:21:00.986Z,23.76
2023-05-02T01:22:01.019Z,23.76
2023-05-02T01:23:01.040Z,23.77
2023-05-02T01:24:01.078Z,23.77
2023-05-02T01:25:01.131Z,23.77
2023-05-02T01:26:01.169Z,23.76
2023-05-02T01:27:01.190Z,23.76
2023-05-02T01:28:01.236Z,23.77
2023-05-02T01:29:01.267Z,23.76
2023-05-02T01:30:01.621Z,23.76
2023-05-02T01:31:01.313Z,23.76
2023-05-02T01:32:01.448Z,23.76
2023-05-02T01:33:01.520Z,23.76
2023-05-02T01:34:01.487Z,23.76
2023-05-02T01:35:01.518Z,23.76
2023-05-02T01:36:01.599Z,23.75
2023-05-02T01:37:01.562Z,23.76
2023-05-02T01:38:01.647Z,23.76
2023-05-02T01:39:01.653Z,23.76
2023-05-02T01:40:02.067Z,23.75
2023-05-02T01:41:01.745Z,23.76
2023-05-02T01:42:01.774Z,23.76
2023-05-02T01:43:01.812Z,23.75
2023-05-02T01:44:01.869Z,23.75
2023-05-02T01:45:01.954Z,23.75
2023-05-02T01:46:01.941Z,23.75
2023-05-02T01:47:02.084Z,23.75
2023-05-02T01:48:02.038Z,23.75
2023-05-02T01:49:02.031Z,23.75
2023-05-02T01:50:02.270Z,23.75
2023-05-02T01:51:02.148Z,23.75
2023-05-02T01:52:02.176Z,23.75
2023-05-02T01:53:02.201Z,23.75
2023-05-02T01:54:02.288Z,23.75
2023-05-02T01:55:02.257Z,23.75
2023-05-02T01:56:02.322Z,23.75
2023-05-02T01:57:02.330Z,23.76
2023-05-02T01:58:02.372Z,23.75
2023-05-02T01:59:02.418Z,23.75
2023-05-02T02:00:02.983Z,23.75
2023-05-02T02:01:02.519Z,23.75
2023-05-02T02:02:02.532Z,23.76
2023-05-02T02:03:02.570Z,23.75
2023-05-02T02:04:02.625Z,23.75
2023-05-02T02:05:02.628Z,23.75
2023-05-02T02:06:02.704Z,23.75
2023-05-02T02:07:02.723Z,23.75
2023-05-02T02:08:02.751Z,23.75
2023-05-02T02:09:02.820Z,23.74
2023-05-02T02:10:02.999Z,23.73
2023-05-02T02:11:02.854Z,23.74
2023-05-02T02:12:02.934Z,23.73
2023-05-02T02:13:02.961Z,23.74
2023-05-02T02:14:02.979Z,23.73
2023-05-02T02:15:03.068Z,23.73
2023-05-02T02:16:03.066Z,23.73
2023-05-02T02:17:03.156Z,23.73
2023-05-02T02:18:03.180Z,23.73
2023-05-02T02:19:03.229Z,23.73
2023-05-02T02:20:03.245Z,23.73
2023-05-02T02:21:03.267Z,23.72
2023-05-02T02:22:03.316Z,23.73
2023-05-02T02:23:03.366Z,23.72
2023-05-02T02:24:03.390Z,23.73
2023-05-02T02:25:03.445Z,23.72
2023-05-02T02:26:03.483Z,23.72
2023-05-02T02:27:03.490Z,23.72
2023-05-02T02:28:03.547Z,23.72
2023-05-02T02:29:03.578Z,23.72
2023-05-02T02:30:03.651Z,23.72
2023-05-02T02:31:03.716Z,23.72
2023-05-02T02:32:03.689Z,23.72
2023-05-02T02:33:03.784Z,23.72
2023-05-02T02:34:03.832Z,23.72
2023-05-02T02:35:03.838Z,23.71
2023-05-02T02:36:03.880Z,23.71
2023-05-02T02:37:03.920Z,23.72
2023-05-02T02:38:03.970Z,23.72
2023-05-02T02:39:04.002Z,23.71
2023-05-02T02:40:04.162Z,23.71
2023-05-02T02:41:04.085Z,23.71
2023-05-02T02:42:04.130Z,23.70
2023-05-02T02:43:04.160Z,23.70
2023-05-02T02:44:04.232Z,23.71
2023-05-02T02:45:04.253Z,23.71
2023-05-02T02:46:04.386Z,23.71
2023-05-02T02:47:04.331Z,23.71
2023-05-02T02:48:04.423Z,23.71
2023-05-02T02:49:04.405Z,23.71
2023-05-02T02:50:04.478Z,23.70
2023-05-02T02:51:04.508Z,23.71
2023-05-02T02:52:04.579Z,23.70
2023-05-02T02:53:04.631Z,23.70
2023-05-02T02:54:15.392Z,23.70
2023-05-02T02:55:05.642Z,23.70
2023-05-02T02:56:04.627Z,23.69
2023-05-02T02:57:04.623Z,23.70
2023-05-02T02:58:04.615Z,23.70
2023-05-02T02:59:04.641Z,23.69
2023-05-02T03:00:04.582Z,23.70
2023-05-02T03:01:04.590Z,23.70
2023-05-02T03:02:04.614Z,23.70
2023-05-02T03:03:04.643Z,23.70
2023-05-02T03:04:04.600Z,23.69
2023-05-02T03:05:04.657Z,23.69
2023-05-02T03:06:04.546Z,23.70
2023-05-02T03:07:04.606Z,23.70
2023-05-02T03:08:04.609Z,23.69
2023-05-02T03:09:04.655Z,23.69
2023-05-02T03:10:04.706Z,23.69
2023-05-02T03:11:04.759Z,23.68
2023-05-02T03:12:04.786Z,23.69
2023-05-02T03:13:04.839Z,23.69
2023-05-02T03:14:04.877Z,23.69
2023-05-02T03:15:04.969Z,23.68
2023-05-02T03:16:05.006Z,23.68
2023-05-02T03:17:05.016Z,23.67
2023-05-02T03:18:05.149Z,23.67
2023-05-02T03:19:05.134Z,23.67
2023-05-02T03:20:05.195Z,23.67
2023-05-02T03:21:05.197Z,23.66
2023-05-02T03:22:05.253Z,23.66
2023-05-02T03:23:05.387Z,23.67
2023-05-02T03:24:05.367Z,23.66
2023-05-02T03:25:05.401Z,23.66
2023-05-02T03:26:05.441Z,23.66
2023-05-02T03:27:05.510Z,23.66
2023-05-02T03:28:05.537Z,23.67
2023-05-02T03:29:05.582Z,23.67
2023-05-02T03:30:05.626Z,23.67
2023-05-02T03:31:05.714Z,23.67
2023-05-02T03:32:05.821Z,23.68
2023-05-02T03:33:05.806Z,23.66
2023-05-02T03:34:05.828Z,23.66
2023-05-02T03:35:05.845Z,23.65
2023-05-02T03:36:05.902Z,23.66
2023-05-02T03:37:05.970Z,23.66
2023-05-02T03:38:06.012Z,23.65
2023-05-02T03:39:06.034Z,23.66
2023-05-02T03:40:06.094Z,23.66
2023-05-02T03:41:06.172Z,23.67
2023-05-02T03:42:06.205Z,23.67
2023-05-02T03:43:06.215Z,23.67
2023-05-02T03:44:06.296Z,23.67
2023-05-02T03:45:06.319Z,23.67
2023-05-02T03:46:06.396Z,23.67
2023-05-02T03:47:06.529Z,23.68
2023-05-02T03:48:06.559Z,23.69
2023-05-02T03:49:06.508Z,23.71
2023-05-02T03:50:06.552Z,23.74
2023-05-02T03:51:06.560Z,23.76
2023-05-02T03:52:06.609Z,23.78
2023-05-02T03:53:06.653Z,23.81
2023-05-02T03:54:06.849Z,23.83
2023-05-02T03:55:06.678Z,23.85
2023-05-02T03:56:06.737Z,23.88
2023-05-02T03:57:06.770Z,23.90
2023-05-02T03:58:06.804Z,23.93
2023-05-02T03:59:06.773Z,23.96
2023-05-02T04:00:06.781Z,23.99
2023-05-02T04:01:06.778Z,24.02
2023-05-02T04:02:06.862Z,24.04
2023-05-02T04:03:06.833Z,24.07
2023-05-02T04:04:06.914Z,24.10
2023-05-02T04:05:06.838Z,24.13
2023-05-02T04:06:06.926Z,24.16
2023-05-02T04:07:06.855Z,24.19
2023-05-02T04:08:06.863Z,24.21
2023-05-02T04:09:06.856Z,24.24
2023-05-02T04:10:06.827Z,24.27
2023-05-02T04:11:06.821Z,24.29
2023-05-02T04:12:06.809Z,24.31
2023-05-02T04:13:06.855Z,24.33
2023-05-02T04:14:46.453Z,24.39
2023-05-02T04:15:46.428Z,24.41
2023-05-02T04:16:46.476Z,24.43
2023-05-02T04:17:46.432Z,24.45
2023-05-02T04:18:46.438Z,24.47
2023-05-02T04:19:46.428Z,24.48
2023-05-02T04:20:46.427Z,24.51
2023-05-02T04:21:46.413Z,24.52
2023-05-02T04:22:46.397Z,24.54
2023-05-02T04:23:46.394Z,24.55
2023-05-02T04:24:46.379Z,24.57
2023-05-02T04:25:46.385Z,24.58
2023-05-02T04:26:46.370Z,24.60
2023-05-02T04:27:46.342Z,24.60
2023-05-02T04:28:46.356Z,24.61
2023-05-02T04:29:46.329Z,24.63
2023-05-02T04:30:46.343Z,24.64
2023-05-02T04:31:46.340Z,24.64
2023-05-02T04:32:46.352Z,24.66
2023-05-02T04:33:46.307Z,24.66
2023-05-02T04:34:46.286Z,24.66
2023-05-02T04:35:46.311Z,24.68
2023-05-02T04:36:46.315Z,24.68
2023-05-02T04:37:46.301Z,24.69
2023-05-02T04:38:46.277Z,24.69
2023-05-02T04:39:46.296Z,24.70
2023-05-02T04:40:46.299Z,24.70
2023-05-02T04:41:46.302Z,24.70
2023-05-02T04:42:46.283Z,24.70
2023-05-02T04:43:46.293Z,24.71
2023-05-02T04:44:46.257Z,24.70
2023-05-02T04:45:46.253Z,24.70
2023-05-02T04:46:46.441Z,24.70
2023-05-02T04:47:46.394Z,24.70
2023-05-02T04:48:46.477Z,24.70
2023-05-02T04:49:46.493Z,24.70
2023-05-02T04:50:46.580Z,24.69
2023-05-02T04:51:46.623Z,24.69
2023-05-02T04:52:46.719Z,24.69
2023-05-02T04:53:46.745Z,24.69
2023-05-02T04:54:46.778Z,24.69
2023-05-02T04:55:46.869Z,24.69
2023-05-02T04:56:46.912Z,24.68
2023-05-02T04:57:46.975Z,24.69
2023-05-02T04:58:47.038Z,24.69
2023-05-02T04:59:47.090Z,24.69
2023-05-02T05:00:54.183Z,24.69
2023-05-02T05:01:47.174Z,24.67
2023-05-02T05:02:47.282Z,24.66
2023-05-02T05:03:47.259Z,24.67
2023-05-02T05:04:47.157Z,24.67
2023-05-02T05:05:47.194Z,24.67
2023-05-02T05:06:47.256Z,24.67
2023-05-02T05:07:47.220Z,24.68
2023-05-02T05:08:47.134Z,24.67
2023-05-02T05:09:47.123Z,24.68
2023-05-02T05:10:47.124Z,24.67
2023-05-02T05:11:47.090Z,24.67
2023-05-02T05:12:47.071Z,24.67
2023-05-02T05:13:47.086Z,24.66
2023-05-02T05:14:47.097Z,24.66
2023-05-02T05:15:48.130Z,24.65
2023-05-02T05:16:47.192Z,24.65
2023-05-02T05:17:47.130Z,24.65
2023-05-02T05:18:47.040Z,24.65
2023-05-02T05:19:47.084Z,24.65
2023-05-02T05:20:47.058Z,24.66
2023-05-02T05:21:47.035Z,24.65
2023-05-02T05:22:47.064Z,24.64
2023-05-02T05:23:47.412Z,24.65
2023-05-02T05:24:47.180Z,24.65
2023-05-02T05:25:47.265Z,24.65
2023-05-02T05:26:47.302Z,24.65
2023-05-02T05:27:47.375Z,24.65
2023-05-02T05:28:47.460Z,24.65
2023-05-02T05:29:47.495Z,24.65
2023-05-02T05:30:47.528Z,24.65
2023-05-02T05:31:47.679Z,24.64
2023-05-02T05:32:47.695Z,24.59
2023-05-02T05:33:47.783Z,24.57
2023-05-02T05:34:47.757Z,24.52
2023-05-02T05:35:47.750Z,24.49
2023-05-02T05:36:47.736Z,24.48
2023-05-02T05:37:47.752Z,24.45
2023-05-02T05:38:47.767Z,24.41
2023-05-02T05:39:48.196Z,24.42
2023-05-02T05:40:47.759Z,24.43
2023-05-02T05:41:47.750Z,24.42
2023-05-02T05:42:47.759Z,24.42
2023-05-02T05:43:47.770Z,24.42
2023-05-02T05:44:47.831Z,24.43
2023-05-02T05:45:47.790Z,24.31
2023-05-02T05:46:56.380Z,24.16
2023-05-02T05:47:48.002Z,24.06
2023-05-02T05:48:48.045Z,24.08
2023-05-02T05:49:48.212Z,24.13
2023-05-02T05:50:48.110Z,24.16
2023-05-02T05:51:48.115Z,24.22
2023-05-02T05:52:48.114Z,24.29
2023-05-02T05:53:48.118Z,24.37
2023-05-02T05:54:48.143Z,24.44
2023-05-02T05:55:48.147Z,24.51
2023-05-02T05:56:48.206Z,24.58
2023-05-02T05:57:48.246Z,24.64
2023-05-02T05:58:48.332Z,24.69
2023-05-02T05:59:48.412Z,24.77
2023-05-02T06:00:48.399Z,24.82
2023-05-02T06:01:48.475Z,24.85
2023-05-02T06:02:48.559Z,24.88
2023-05-02T06:03:48.742Z,24.93
2023-05-02T06:04:49.690Z,24.98
2023-05-02T06:05:48.577Z,25.01
2023-05-02T06:06:48.676Z,25.05
2023-05-02T06:07:48.693Z,25.07
2023-05-02T06:08:48.667Z,25.10
2023-05-02T06:09:48.715Z,25.13
2023-05-02T06:10:48.708Z,25.15
2023-05-02T06:11:48.754Z,25.17
2023-05-02T06:12:49.353Z,25.19
2023-05-02T06:13:48.768Z,25.20
2023-05-02T06:14:48.950Z,25.22
2023-05-02T06:15:48.774Z,25.21
2023-05-02T06:16:48.792Z,25.23
2023-05-02T06:17:48.859Z,25.23
2023-05-02T06:18:48.796Z,25.26
2023-05-02T06:19:49.219Z,25.26
2023-05-02T06:20:48.849Z,25.28
2023-05-02T06:21:48.875Z,25.28
2023-05-02T06:22:48.901Z,25.28
2023-05-02T06:23:48.888Z,25.31
2023-05-02T06:24:48.933Z,25.34
2023-05-02T06:25:48.926Z,25.36
2023-05-02T06:26:48.937Z,25.36
2023-05-02T06:27:48.939Z,25.38
2023-05-02T06:28:49.028Z,25.38
2023-05-02T06:29:49.232Z,25.39
2023-05-02T06:30:48.987Z,25.40
2023-05-02T06:31:49.001Z,25.40
2023-05-02T06:32:49.044Z,25.40
2023-05-02T06:33:49.000Z,25.42
2023-05-02T06:34:49.051Z,25.42
2023-05-02T06:35:49.055Z,25.43
2023-05-02T06:36:49.065Z,25.35
2023-05-02T06:37:49.075Z,25.20
2023-05-02T06:38:49.170Z,25.02
2023-05-02T06:39:49.218Z,24.79
2023-05-02T06:40:49.223Z,24.58
2023-05-02T06:41:49.214Z,24.45
2023-05-02T06:42:49.178Z,24.44
2023-05-02T06:43:49.196Z,24.45
2023-05-02T06:44:49.181Z,24.38
2023-05-02T06:45:49.182Z,24.32
2023-05-02T06:46:49.249Z,24.28
2023-05-02T06:47:49.241Z,24.32
2023-05-02T06:48:49.220Z,24.37
2023-05-02T06:49:49.430Z,24.44
2023-05-02T06:50:50.208Z,24.52
2023-05-02T06:51:49.345Z,24.59
2023-05-02T06:52:49.375Z,24.67
2023-05-02T06:53:49.454Z,24.74
2023-05-02T06:54:49.897Z,24.82
2023-05-02T06:55:49.545Z,24.88
2023-05-02T06:56:49.577Z,24.93
2023-05-02T06:57:49.646Z,25.00
2023-05-02T06:58:49.746Z,25.03
2023-05-02T06:59:49.712Z,25.09
2023-05-02T07:00:49.714Z,25.13
2023-05-02T07:01:49.702Z,25.15
2023-05-02T07:02:49.849Z,25.18
2023-05-02T07:03:49.768Z,25.22
2023-05-02T07:04:49.788Z,25.23
2023-05-02T07:05:49.780Z,25.25
2023-05-02T07:06:49.898Z,25.28
2023-05-02T07:07:49.842Z,25.31
2023-05-02T07:08:49.856Z,25.33
2023-05-02T07:09:50.235Z,25.36
2023-05-02T07:10:49.955Z,25.38
2023-05-02T07:11:49.944Z,25.40
2023-05-02T07:12:49.949Z,25.42
2023-05-02T07:13:49.962Z,25.45
2023-05-02T07:14:50.762Z,25.44
2023-05-02T07:15:49.967Z,25.46
2023-05-02T07:16:50.011Z,25.48
2023-05-02T07:17:50.027Z,25.49
2023-05-02T07:18:49.974Z,25.51
2023-05-02T07:19:50.054Z,25.51
2023-05-02T07:20:50.009Z,25.53
2023-05-02T07:21:50.075Z,25.48
2023-05-02T07:22:50.056Z,25.44
2023-05-02T07:23:50.056Z,25.43
2023-05-02T07:24:51.084Z,25.45
2023-05-02T07:25:50.073Z,25.46
2023-05-02T07:26:50.146Z,25.48
2023-05-02T07:27:50.101Z,25.50
2023-05-02T07:28:50.119Z,25.52
2023-05-02T07:29:50.129Z,25.55
2023-05-02T07:30:50.253Z,25.56
2023-05-02T07:31:50.200Z,25.46
2023-05-02T07:32:50.180Z,25.31
2023-05-02T07:33:50.212Z,25.14
2023-05-02T07:34:50.299Z,24.97
2023-05-02T07:35:50.300Z,24.80
2023-05-02T07:36:50.306Z,24.63
2023-05-02T07:37:50.288Z,24.46
2023-05-02T07:38:50.329Z,24.30
2023-05-02T07:39:50.406Z,24.15
2023-05-02T07:40:50.803Z,24.00
2023-05-02T07:41:50.517Z,23.95
2023-05-02T07:42:50.566Z,23.93
2023-05-02T07:43:50.615Z,23.98
2023-05-02T07:44:50.653Z,24.06
2023-05-02T07:45:50.729Z,24.16
2023-05-02T07:46:50.695Z,24.26
2023-05-02T07:47:50.680Z,24.36
2023-05-02T07:48:50.707Z,24.46
2023-05-02T07:49:50.734Z,24.57
2023-05-02T07:50:51.282Z,24.66
2023-05-02T07:51:50.893Z,24.76
2023-05-02T07:52:50.876Z,24.85
2023-05-02T07:53:50.956Z,24.93
2023-05-02T07:54:50.959Z,25.00
2023-05-02T07:55:51.004Z,25.06
2023-05-02T07:56:51.023Z,25.12
2023-05-02T07:57:51.000Z,25.16
2023-05-02T07:58:51.088Z,25.23
2023-05-02T07:59:51.093Z,25.27
2023-05-02T08:00:51.101Z,25.31
2023-05-02T08:01:51.153Z,25.33
2023-05-02T08:02:51.210Z,25.35
2023-05-02T08:03:51.380Z,25.37
2023-05-02T08:04:51.314Z,25.41
2023-05-02T08:05:51.238Z,25.43
2023-05-02T08:06:51.220Z,25.46
2023-05-02T08:07:51.258Z,25.49
2023-05-02T08:08:51.259Z,25.51
2023-05-02T08:09:51.267Z,25.53
2023-05-02T08:10:51.289Z,25.55
2023-05-02T08:11:51.275Z,25.56
2023-05-02T08:12:51.312Z,25.57
2023-05-02T08:13:51.291Z,25.58
2023-05-02T08:14:51.291Z,25.60
2023-05-02T08:15:51.346Z,25.62
2023-05-02T08:16:51.494Z,25.62
2023-05-02T08:17:51.352Z,25.63
2023-05-02T08:18:51.334Z,25.64
2023-05-02T08:19:51.342Z,25.66
2023-05-02T08:20:51.388Z,25.67
2023-05-02T08:21:51.353Z,25.70
2023-05-02T08:22:51.379Z,25.69
2023-05-02T08:23:51.382Z,25.69
2023-05-02T08:24:51.358Z,25.71
2023-05-02T08:25:51.373Z,25.73
2023-05-02T08:26:51.378Z,25.75
2023-05-02T08:27:51.398Z,25.75
2023-05-02T08:28:51.362Z,25.77
2023-05-02T08:29:51.377Z,25.78
2023-05-02T08:30:51.412Z,25.77
2023-05-02T08:31:51.460Z,25.70
2023-05-02T08:32:51.523Z,25.40
2023-05-02T08:33:51.450Z,24.62
2023-05-02T08:34:51.492Z,23.88
2023-05-02T08:35:51.834Z,23.36
2023-05-02T08:36:51.560Z,22.99
2023-05-02T08:37:51.566Z,22.67
2023-05-02T08:38:51.532Z,22.65
2023-05-02T08:39:51.569Z,22.73
2023-05-02T08:40:51.797Z,22.84
2023-05-02T08:41:51.655Z,22.96
2023-05-02T08:42:51.657Z,23.07
2023-05-02T08:43:51.704Z,23.14
2023-05-02T08:44:51.780Z,23.19
2023-05-02T08:45:52.292Z,23.22
2023-05-02T08:46:51.811Z,23.28
2023-05-02T08:47:51.902Z,23.37
2023-05-02T08:48:51.833Z,23.48
2023-05-02T08:49:51.854Z,23.61
2023-05-02T08:50:51.967Z,23.73
2023-05-02T08:51:52.019Z,23.80
2023-05-02T08:52:52.053Z,23.85
2023-05-02T08:53:52.075Z,23.80
2023-05-02T08:54:52.125Z,23.76
2023-05-02T08:55:52.330Z,23.69
2023-05-02T08:56:52.193Z,23.64
2023-05-02T08:57:52.205Z,23.61
2023-05-02T08:58:52.263Z,23.58
2023-05-02T08:59:52.374Z,23.55
2023-05-02T09:00:52.247Z,23.52
2023-05-02T09:01:52.185Z,23.49
2023-05-02T09:02:52.229Z,23.47
2023-05-02T09:03:52.289Z,23.44
2023-05-02T09:04:52.212Z,23.43
2023-05-02T09:05:52.229Z,23.41
2023-05-02T09:06:52.346Z,23.40
2023-05-02T09:07:52.211Z,23.39
2023-05-02T09:08:52.216Z,23.43
2023-05-02T09:09:52.220Z,23.51
2023-05-02T09:10:52.298Z,23.60
2023-05-02T09:11:52.760Z,23.71
2023-05-02T09:12:52.425Z,23.82
2023-05-02T09:13:52.423Z,23.92
2023-05-02T09:14:52.426Z,24.01
2023-05-02T09:15:52.449Z,24.12
2023-05-02T09:16:52.869Z,24.21
2023-05-02T09:17:52.518Z,24.30
2023-05-02T09:18:52.449Z,24.36
2023-05-02T09:19:52.453Z,24.41
2023-05-02T09:20:52.467Z,24.47
2023-05-02T09:21:52.837Z,24.55
2023-05-02T09:22:52.666Z,24.63
2023-05-02T09:23:53.313Z,24.69
2023-05-02T09:24:52.694Z,24.75
2023-05-02T09:25:52.750Z,24.82
2023-05-02T09:26:52.758Z,24.86
2023-05-02T09:27:52.831Z,24.91
2023-05-02T09:28:52.768Z,24.97
2023-05-02T09:29:52.846Z,25.01
2023-05-02T09:30:52.910Z,25.04
2023-05-02T09:31:56.038Z,25.06
2023-05-02T09:32:52.939Z,25.09
2023-05-02T09:33:52.824Z,25.12
2023-05-02T09:34:52.873Z,25.14
2023-05-02T09:35:52.922Z,25.16
2023-05-02T09:36:53.765Z,25.20
2023-05-02T09:37:52.859Z,25.24
2023-05-02T09:38:52.816Z,25.27
2023-05-02T09:39:52.796Z,25.29
2023-05-02T09:40:52.809Z,25.32
2023-05-02T09:41:52.822Z,25.30
2023-05-02T09:42:52.893Z,25.25
2023-05-02T09:43:52.827Z,25.17
2023-05-02T09:44:52.773Z,25.04
2023-05-02T09:45:52.843Z,24.59
2023-05-02T09:46:52.754Z,24.27
2023-05-02T09:47:52.853Z,24.14
2023-05-02T09:48:52.742Z,24.12
2023-05-02T09:49:52.747Z,24.13
2023-05-02T09:50:52.715Z,24.19
2023-05-02T09:51:52.746Z,24.23
2023-05-02T09:52:52.780Z,24.29
2023-05-02T09:53:52.697Z,24.35
2023-05-02T09:54:52.759Z,24.42
2023-05-02T09:55:52.713Z,24.50
2023-05-02T09:56:52.728Z,24.56
2023-05-02T09:57:52.694Z,24.65
2023-05-02T09:58:52.680Z,24.70
2023-05-02T09:59:52.680Z,24.78
2023-05-02T10:00:52.699Z,24.83
2023-05-02T10:01:52.716Z,24.89
2023-05-02T10:02:52.707Z,24.94
2023-05-02T10:03:52.695Z,24.99
2023-05-02T10:04:52.624Z,25.02
2023-05-02T10:05:52.662Z,25.05
2023-05-02T10:06:52.743Z,25.09
2023-05-02T10:07:52.620Z,25.13
2023-05-02T10:08:52.634Z,25.17
2023-05-02T10:09:52.631Z,25.18
2023-05-02T10:10:52.600Z,25.20
2023-05-02T10:11:52.702Z,25.24
2023-05-02T10:12:52.674Z,25.26
2023-05-02T10:13:52.572Z,25.28
2023-05-02T10:14:52.561Z,25.30
2023-05-02T10:15:52.583Z,25.31
2023-05-02T10:16:52.653Z,25.33
2023-05-02T10:17:52.600Z,25.35
2023-05-02T10:18:52.542Z,25.37
2023-05-02T10:19:52.542Z,25.38
2023-05-02T10:20:52.526Z,25.39
2023-05-02T10:21:52.820Z,25.40
2023-05-02T10:22:52.510Z,25.41
2023-05-02T10:23:52.558Z,25.44
2023-05-02T10:24:52.639Z,25.45
2023-05-02T10:25:52.511Z,25.47
2023-05-02T10:26:52.858Z,25.48
2023-05-02T10:27:52.528Z,25.49
2023-05-02T10:28:52.488Z,25.50
2023-05-02T10:29:52.493Z,25.53
2023-05-02T10:30:52.485Z,25.54
2023-05-02T10:31:52.494Z,25.55
2023-05-02T10:32:52.485Z,25.57
2023-05-02T10:33:52.472Z,25.57
2023-05-02T10:34:52.422Z,25.58
2023-05-02T10:35:52.462Z,25.59
2023-05-02T10:36:52.821Z,25.55
2023-05-02T10:37:52.485Z,25.56
2023-05-02T10:38:52.495Z,25.58
2023-05-02T10:39:52.491Z,25.48
2023-05-02T10:40:52.558Z,25.02
2023-05-02T10:41:52.856Z,24.48
2023-05-02T10:42:52.577Z,24.25
2023-05-02T10:43:52.558Z,24.21
2023-05-02T10:44:52.638Z,24.23
2023-05-02T10:45:52.665Z,24.26
2023-05-02T10:46:52.739Z,24.30
2023-05-02T10:47:52.769Z,24.32
2023-05-02T10:48:53.755Z,24.35
2023-05-02T10:49:52.669Z,24.37
2023-05-02T10:50:52.630Z,24.40
2023-05-02T10:51:52.867Z,24.43
2023-05-02T10:52:52.629Z,24.44
2023-05-02T10:53:52.583Z,24.45
2023-05-02T10:54:52.555Z,24.43
2023-05-02T10:55:52.618Z,24.40
2023-05-02T10:56:52.555Z,24.39
2023-05-02T10:57:52.614Z,24.39
2023-05-02T10:58:52.588Z,24.37
2023-05-02T10:59:52.556Z,24.36
2023-05-02T11:00:52.722Z,24.39
2023-05-02T11:01:52.874Z,24.39
2023-05-02T11:02:52.742Z,24.40
2023-05-02T11:03:52.549Z,24.42
2023-05-02T11:04:52.577Z,24.43
2023-05-02T11:05:52.507Z,24.44
2023-05-02T11:06:52.848Z,24.43
2023-05-02T11:07:52.512Z,24.46
2023-05-02T11:08:52.508Z,24.47
2023-05-02T11:09:52.477Z,24.48
2023-05-02T11:10:52.461Z,24.49
2023-05-02T11:11:52.508Z,24.49
2023-05-02T11:12:52.481Z,24.50
2023-05-02T11:13:52.489Z,24.49
2023-05-02T11:14:52.471Z,24.50
2023-05-02T11:15:52.445Z,24.50
2023-05-02T11:16:52.464Z,24.51
2023-05-02T11:17:52.532Z,24.51
2023-05-02T11:18:52.416Z,24.51
2023-05-02T11:19:52.405Z,24.51
2023-05-02T11:20:52.407Z,24.50
2023-05-02T11:21:52.402Z,24.51
2023-05-02T11:22:52.384Z,24.51
2023-05-02T11:23:52.372Z,24.50
2023-05-02T11:24:52.390Z,24.51
2023-05-02T11:25:52.402Z,24.52
2023-05-02T11:26:52.911Z,24.50
2023-05-02T11:27:52.373Z,24.51
2023-05-02T11:28:52.353Z,24.46
2023-05-02T11:29:52.366Z,24.33
2023-05-02T11:30:52.337Z,24.03
2023-05-02T11:31:52.428Z,23.63
2023-05-02T11:32:52.336Z,23.34
2023-05-02T11:33:52.366Z,23.04
2023-05-02T11:34:52.375Z,22.89
2023-05-02T11:35:53.346Z,22.87
2023-05-02T11:36:52.896Z,22.90
2023-05-02T11:37:52.549Z,22.96
2023-05-02T11:38:52.583Z,23.04
2023-05-02T11:39:52.583Z,23.12
2023-05-02T11:40:52.595Z,23.21
2023-05-02T11:41:52.608Z,23.31
2023-05-02T11:42:52.631Z,23.39
2023-05-02T11:43:52.611Z,23.46
2023-05-02T11:44:52.694Z,23.53
2023-05-02T11:45:52.779Z,23.59
2023-05-02T11:46:52.843Z,23.66
2023-05-02T11:47:53.011Z,23.69
2023-05-02T11:48:52.889Z,23.69
2023-05-02T11:49:52.927Z,23.68
2023-05-02T11:50:53.013Z,23.65
2023-05-02T11:51:53.099Z,23.66
2023-05-02T11:52:53.111Z,23.70
2023-05-02T11:53:53.168Z,23.72
2023-05-02T11:54:53.253Z,23.76
2023-05-02T11:55:53.294Z,23.79
2023-05-02T11:56:53.316Z,23.83
2023-05-02T11:57:53.338Z,23.87
2023-05-02T11:58:53.401Z,23.90
2023-05-02T11:59:53.460Z,23.92
2023-05-02T12:00:53.511Z,23.96
2023-05-02T12:01:53.486Z,23.98
2023-05-02T12:02:53.629Z,24.01
2023-05-02T12:03:53.584Z,24.03
2023-05-02T12:04:53.565Z,24.04
2023-05-02T12:05:53.597Z,24.06
2023-05-02T12:06:53.646Z,24.08
2023-05-02T12:07:53.605Z,24.10
2023-05-02T12:08:53.640Z,24.11
2023-05-02T12:09:53.662Z,24.13
2023-05-02T12:10:53.712Z,24.14
2023-05-02T12:11:53.710Z,24.15
2023-05-02T12:12:53.737Z,24.16
2023-05-02T12:13:53.698Z,24.16
2023-05-02T12:14:53.693Z,24.18
2023-05-02T12:15:53.761Z,24.18
2023-05-02T12:16:53.754Z,24.12
2023-05-02T12:17:53.818Z,23.97
2023-05-02T12:18:53.842Z,23.78
2023-05-02T12:19:53.861Z,23.65
2023-05-02T12:20:53.879Z,23.46
2023-05-02T12:21:53.882Z,23.32
2023-05-02T12:22:53.903Z,23.21
2023-05-02T12:23:53.935Z,23.18
2023-05-02T12:24:53.965Z,23.20
2023-05-02T12:25:53.987Z,23.24
2023-05-02T12:26:54.040Z,23.30
2023-05-02T12:27:54.000Z,23.34
2023-05-02T12:28:54.006Z,23.39
2023-05-02T12:29:53.992Z,23.43
2023-05-02T12:30:54.020Z,23.48
2023-05-02T12:31:54.175Z,23.52
2023-05-02T12:32:54.157Z,23.55
2023-05-02T12:33:54.174Z,23.59
2023-05-02T12:34:54.256Z,23.62
2023-05-02T12:35:54.294Z,23.66
2023-05-02T12:36:54.412Z,23.69
2023-05-02T12:37:54.423Z,23.71
2023-05-02T12:38:54.910Z,23.73
2023-05-02T12:39:54.501Z,23.75
2023-05-02T12:40:54.626Z,23.78
2023-05-02T12:41:54.632Z,23.81
2023-05-02T12:42:54.640Z,23.82
2023-05-02T12:43:54.697Z,23.84
2023-05-02T12:44:54.712Z,23.85
2023-05-02T12:45:54.791Z,23.87
2023-05-02T12:46:54.806Z,23.88
2023-05-02T12:47:54.922Z,23.89
2023-05-02T12:48:54.840Z,23.89
2023-05-02T12:49:54.895Z,23.91
2023-05-02T12:50:54.899Z,23.92
2023-05-02T12:51:54.961Z,23.92
2023-05-02T12:52:54.978Z,23.93
2023-05-02T12:53:55.889Z,23.94